Time;durP1;ratioP1;P1;durP2;ratioP2;P2;SDS_P1;SDS_P2;PMS_P1;PMS_P2;Temp;Humidity;BMP_temperature;BMP_pressure;BME280_temperature;BME280_humidity;BME280_pressure;Samples;Min_cycle;Max_cycle;Signal;HPM_P1;HPM_P2
2022/01/04 00:02:01;;;;;;;4.65;1.35;;;18.50;57.90;;;;;;5093930;28;20175;-84
2022/01/04 00:04:27;;;;;;;4.70;1.27;;;18.50;57.80;;;;;;5111200;28;20509;-84
2022/01/04 00:06:55;;;;;;;3.03;1.60;;;18.50;57.70;;;;;;5093839;28;20161;-84
2022/01/04 00:09:24;;;;;;;5.35;1.50;;;18.50;57.60;;;;;;5093936;28;20347;-84
2022/01/04 00:13:21;;;;;;;4.97;1.40;;;18.50;57.60;;;;;;5110729;28;20161;-84
2022/01/04 00:14:36;;;;;;;1.85;1.35;;;18.50;57.60;;;;;;5112658;28;20263;-84
2022/01/04 00:17:04;;;;;;;3.40;1.25;;;18.60;57.60;;;;;;5092373;28;20203;-84
2022/01/04 00:19:30;;;;;;;3.15;1.38;;;18.50;57.70;;;;;;5109928;28;20160;-84
2022/01/04 00:22:00;;;;;;;4.38;1.35;;;18.50;57.80;;;;;;5092425;28;20170;-84
2022/01/04 00:24:26;;;;;;;4.55;1.50;;;18.50;58.40;;;;;;5110183;28;20626;-84
2022/01/04 00:26:52;;;;;;;3.70;1.60;;;18.40;57.80;;;;;;5109537;28;20548;-84
2022/01/04 00:29:19;;;;;;;5.20;1.40;;;18.50;57.90;;;;;;5126772;28;20191;-84
2022/01/04 00:31:51;;;;;;;3.08;1.30;;;18.40;57.90;;;;;;5093066;28;20175;-84
2022/01/04 00:34:18;;;;;;;2.95;1.45;;;18.40;57.70;;;;;;5127935;28;20217;-84
2022/01/04 00:36:45;;;;;;;4.28;1.50;;;18.40;58.00;;;;;;5108961;28;20183;-84
2022/01/04 00:39:11;;;;;;;5.68;1.70;;;18.40;58.10;;;;;;5092477;28;20163;-84
2022/01/04 00:41:36;;;;;;;5.32;1.58;;;18.50;58.00;;;;;;5109694;28;20193;-84
2022/01/04 00:44:04;;;;;;;3.65;1.50;;;18.40;58.10;;;;;;5108923;28;20236;-84
2022/01/04 00:46:30;;;;;;;5.07;1.55;;;18.40;58.20;;;;;;5109951;28;20201;-84
2022/01/04 00:51:33;;;;;;;4.10;1.35;;;18.40;58.20;;;;;;5111353;28;20526;-84
2022/01/04 00:54:00;;;;;;;5.80;1.70;;;18.40;58.20;;;;;;5092351;28;20159;-84
2022/01/04 00:56:28;;;;;;;3.63;1.40;;;18.40;58.20;;;;;;5127928;27;20720;-84
2022/01/04 00:58:53;;;;;;;7.45;1.70;;;18.40;58.10;;;;;;5092052;28;20176;-84
2022/01/04 01:01:19;;;;;;;2.15;1.40;;;18.40;58.20;;;;;;5091859;28;20148;-84
2022/01/04 01:03:45;;;;;;;3.22;1.50;;;18.40;58.20;;;;;;5092213;28;20218;-84
2022/01/04 01:06:11;;;;;;;5.38;1.70;;;18.30;58.40;;;;;;5108647;28;20211;-84
2022/01/04 01:08:36;;;;;;;2.03;1.40;;;18.30;58.30;;;;;;5108853;28;20160;-85
2022/01/04 01:11:06;;;;;;;5.70;1.50;;;18.40;58.30;;;;;;5092341;28;20152;-84
2022/01/04 01:13:33;;;;;;;2.90;1.45;;;18.30;58.20;;;;;;5092077;28;20186;-85
2022/01/04 01:15:58;;;;;;;3.60;1.15;;;18.30;58.20;;;;;;5091585;28;20187;-84
2022/01/04 01:18:24;;;;;;;4.30;1.45;;;18.40;58.10;;;;;;5074899;28;20178;-85
2022/01/04 01:20:52;;;;;;;3.70;1.30;;;18.30;58.00;;;;;;5091788;28;20179;-84
2022/01/04 01:23:19;;;;;;;2.28;1.10;;;18.40;58.20;;;;;;5091757;28;20156;-85
2022/01/04 01:25:44;;;;;;;6.65;1.70;;;18.30;58.20;;;;;;5108567;28;20160;-84
2022/01/04 01:28:14;;;;;;;4.15;1.55;;;18.30;58.10;;;;;;5107860;28;20300;-85
2022/01/04 01:30:41;;;;;;;3.22;1.30;;;18.40;58.10;;;;;;5092185;28;20156;-84
2022/01/04 01:33:12;;;;;;;4.95;1.17;;;18.30;58.10;;;;;;5091650;28;20148;-84
2022/01/04 01:35:43;;;;;;;3.67;1.42;;;18.40;58.00;;;;;;5074177;28;20215;-86
2022/01/04 01:38:09;;;;;;;5.25;1.30;;;18.40;58.20;;;;;;5091822;28;20159;-85
2022/01/04 01:40:36;;;;;;;2.92;1.40;;;18.30;58.20;;;;;;5091144;28;20159;-84
2022/01/04 01:43:03;;;;;;;6.45;1.60;;;18.30;58.30;;;;;;5091678;28;20166;-84
2022/01/04 01:45:30;;;;;;;7.18;1.60;;;18.30;58.40;;;;;;5091764;28;20148;-85
2022/01/04 01:47:56;;;;;;;3.00;1.20;;;18.30;58.20;;;;;;5108416;28;20241;-84
2022/01/04 01:50:24;;;;;;;3.45;1.80;;;18.30;58.20;;;;;;5092144;28;20156;-84
2022/01/04 01:52:51;;;;;;;4.65;1.40;;;18.20;58.10;;;;;;5091013;28;20163;-84
2022/01/04 01:55:18;;;;;;;5.35;1.48;;;18.30;58.40;;;;;;5090992;28;20223;-85
2022/01/04 01:57:43;;;;;;;2.83;1.38;;;18.30;58.20;;;;;;5108175;28;20218;-85
2022/01/04 02:00:11;;;;;;;3.13;1.20;;;18.30;58.20;;;;;;5090542;28;20160;-85
2022/01/04 02:02:36;;;;;;;3.10;1.17;;;18.30;58.30;;;;;;5125776;28;20573;-84
2022/01/04 02:05:05;;;;;;;4.88;1.50;;;18.30;58.20;;;;;;5090967;28;20156;-84
2022/01/04 02:07:30;;;;;;;5.68;1.52;;;18.30;58.50;;;;;;5108024;28;20171;-85
2022/01/04 02:10:03;;;;;;;4.93;1.58;;;18.30;58.30;;;;;;5108988;28;20152;-85
2022/01/04 02:12:31;;;;;;;3.08;1.25;;;18.30;58.30;;;;;;5109094;28;20169;-85
2022/01/04 02:14:58;;;;;;;2.83;1.00;;;18.30;58.20;;;;;;5107867;28;20227;-84
2022/01/04 02:17:24;;;;;;;4.65;1.17;;;18.30;58.10;;;;;;5108835;28;20187;-84
2022/01/04 02:19:52;;;;;;;5.72;1.63;;;18.20;58.20;;;;;;5125033;28;20162;-84
2022/01/04 02:22:19;;;;;;;3.17;1.30;;;18.20;58.40;;;;;;5108664;28;20152;-85
2022/01/04 02:24:45;;;;;;;4.07;1.40;;;18.20;58.40;;;;;;5108040;28;20139;-85
2022/01/04 02:27:15;;;;;;;3.53;1.42;;;18.20;58.20;;;;;;5091141;28;20190;-84
2022/01/04 02:29:42;;;;;;;2.17;1.10;;;18.20;58.50;;;;;;5108279;28;20168;-85
2022/01/04 02:32:08;;;;;;;4.45;1.65;;;18.20;58.40;;;;;;5108084;28;20156;-85
2022/01/04 02:34:35;;;;;;;3.20;1.60;;;18.20;58.20;;;;;;5108346;28;20218;-84
2022/01/04 02:37:01;;;;;;;4.10;1.35;;;18.20;58.30;;;;;;5091034;28;20253;-85
2022/01/04 02:39:26;;;;;;;3.25;1.10;;;18.20;58.30;;;;;;5108292;28;20152;-84
2022/01/04 02:41:52;;;;;;;3.85;1.40;;;18.20;58.30;;;;;;5124793;28;20645;-84
2022/01/04 02:44:20;;;;;;;2.50;1.40;;;18.20;58.40;;;;;;5107696;28;20159;-84
2022/01/04 02:46:47;;;;;;;3.75;1.30;;;18.20;58.20;;;;;;5107728;28;20176;-84
2022/01/04 02:49:12;;;;;;;3.17;1.20;;;18.20;58.10;;;;;;5124522;28;20163;-84
2022/01/04 02:51:38;;;;;;;2.17;1.00;;;18.20;58.20;;;;;;5107877;28;20171;-85
2022/01/04 02:54:05;;;;;;;2.53;1.40;;;18.20;58.20;;;;;;5108586;28;20152;-84
2022/01/04 02:56:31;;;;;;;3.95;1.30;;;18.20;58.90;;;;;;5107242;28;20216;-85
2022/01/04 02:59:03;;;;;;;2.70;1.40;;;18.20;58.40;;;;;;5090862;28;20204;-84
2022/01/04 03:01:30;;;;;;;3.85;1.48;;;18.10;58.40;;;;;;5107774;28;20145;-84
2022/01/04 03:03:56;;;;;;;3.58;1.42;;;18.10;58.20;;;;;;5126688;28;20155;-84
2022/01/04 03:06:22;;;;;;;3.20;1.20;;;18.20;58.30;;;;;;5128643;28;20148;-84
2022/01/04 03:08:48;;;;;;;4.07;1.75;;;18.20;58.40;;;;;;5111956;28;20164;-85
2022/01/04 03:11:15;;;;;;;3.78;1.30;;;18.20;58.40;;;;;;5129061;28;20243;-85
2022/01/04 03:13:40;;;;;;;2.67;1.30;;;18.20;58.30;;;;;;5110984;28;20172;-85
2022/01/04 03:16:06;;;;;;;4.68;1.40;;;18.20;58.30;;;;;;5127659;28;20184;-84
2022/01/04 03:18:32;;;;;;;2.63;1.30;;;18.10;58.30;;;;;;5110762;28;20176;-85
2022/01/04 03:20:58;;;;;;;5.43;1.25;;;18.20;58.40;;;;;;5111181;28;20164;-84
2022/01/04 03:23:25;;;;;;;2.70;1.10;;;18.10;58.30;;;;;;5110654;28;20237;-85
2022/01/04 03:25:52;;;;;;;4.20;1.42;;;18.10;58.30;;;;;;5127787;28;20620;-84
2022/01/04 03:28:23;;;;;;;4.47;1.42;;;18.10;58.10;;;;;;5111968;28;20232;-84
2022/01/04 03:30:51;;;;;;;4.32;1.60;;;18.10;58.20;;;;;;5111677;28;20148;-84
2022/01/04 03:33:16;;;;;;;2.80;1.20;;;18.10;58.30;;;;;;5110590;28;20168;-84
2022/01/04 03:35:42;;;;;;;2.78;1.27;;;18.20;58.40;;;;;;5110355;28;20160;-85
2022/01/04 03:38:08;;;;;;;2.95;1.20;;;18.10;58.20;;;;;;5128509;27;20163;-85
2022/01/04 03:40:37;;;;;;;1.98;1.20;;;18.10;58.20;;;;;;5127513;28;20164;-84
2022/01/04 03:43:04;;;;;;;2.92;1.35;;;18.10;58.10;;;;;;5128418;28;20182;-85
2022/01/04 03:45:32;;;;;;;2.88;1.35;;;18.10;58.20;;;;;;5111031;28;20175;-84
2022/01/04 03:47:58;;;;;;;4.25;1.40;;;18.10;58.20;;;;;;5093880;28;20250;-84
2022/01/04 03:50:25;;;;;;;2.83;1.25;;;18.20;58.20;;;;;;5110805;28;20152;-84
2022/01/04 03:52:50;;;;;;;2.63;1.60;;;18.20;58.10;;;;;;5111296;28;20608;-84
2022/01/04 03:55:16;;;;;;;3.75;1.30;;;18.10;58.20;;;;;;5127464;28;20218;-85
2022/01/04 03:57:42;;;;;;;3.38;1.10;;;18.10;58.10;;;;;;5110249;28;20195;-84
2022/01/04 04:00:08;;;;;;;2.38;1.10;;;18.10;58.20;;;;;;5093717;28;20171;-84
2022/01/04 04:02:34;;;;;;;2.58;1.02;;;18.20;58.20;;;;;;5093936;28;20598;-85
2022/01/04 04:04:59;;;;;;;2.72;1.10;;;18.10;58.20;;;;;;5093532;28;20156;-85
2022/01/04 04:07:26;;;;;;;2.17;1.55;;;18.00;58.10;;;;;;5093802;28;20218;-84
2022/01/04 04:09:52;;;;;;;2.65;1.17;;;18.10;58.30;;;;;;5093176;28;20568;-84
2022/01/04 04:12:18;;;;;;;2.42;1.35;;;18.10;58.10;;;;;;5093561;28;20156;-84
2022/01/04 04:14:43;;;;;;;2.97;1.23;;;18.10;57.90;;;;;;5109754;28;20161;-84
2022/01/04 04:17:09;;;;;;;3.28;1.10;;;18.10;58.00;;;;;;5076281;28;20192;-84
2022/01/04 04:19:35;;;;;;;2.03;1.10;;;18.10;57.70;;;;;;5093033;28;20152;-85
2022/01/04 04:22:01;;;;;;;3.30;1.35;;;18.20;57.10;;;;;;5093734;28;20164;-84
2022/01/04 04:24:26;;;;;;;1.77;1.30;;;18.20;57.00;;;;;;5092457;28;20537;-85
2022/01/04 04:26:55;;;;;;;1.70;1.13;;;18.30;57.00;;;;;;5077205;28;20175;-84
2022/01/04 04:29:21;;;;;;;1.92;1.00;;;18.30;57.30;;;;;;5110350;28;20158;-84
2022/01/04 04:31:47;;;;;;;2.78;1.13;;;18.30;57.10;;;;;;5110675;28;20207;-84
2022/01/04 04:34:12;;;;;;;1.75;1.17;;;18.30;57.10;;;;;;5092979;28;20225;-85
2022/01/04 04:36:41;;;;;;;4.90;1.40;;;18.40;57.00;;;;;;5094132;28;20221;-84
2022/01/04 04:39:07;;;;;;;2.30;1.05;;;18.40;57.00;;;;;;5128267;28;20164;-84
2022/01/04 04:41:36;;;;;;;2.05;1.17;;;18.40;57.00;;;;;;5075952;28;20160;-84
2022/01/04 04:44:02;;;;;;;1.55;0.90;;;18.40;56.70;;;;;;5076602;28;20174;-84
2022/01/04 04:46:28;;;;;;;2.13;1.00;;;18.50;56.70;;;;;;5110351;28;20172;-84
2022/01/04 04:48:57;;;;;;;2.60;1.20;;;18.40;56.70;;;;;;5093424;28;20176;-84
2022/01/04 04:51:23;;;;;;;1.67;1.10;;;18.50;56.60;;;;;;5110064;28;20222;-84
2022/01/04 04:53:49;;;;;;;3.13;1.20;;;18.50;56.60;;;;;;5110419;28;20159;-84
2022/01/04 04:56:16;;;;;;;1.67;0.90;;;18.50;56.50;;;;;;5090526;27;20222;-84
2022/01/04 04:58:42;;;;;;;3.67;1.23;;;18.60;56.50;;;;;;5148031;27;20215;-84
2022/01/04 05:01:07;;;;;;;2.10;1.10;;;18.60;56.50;;;;;;5148202;27;20151;-84
2022/01/04 05:03:35;;;;;;;2.33;1.05;;;18.60;56.30;;;;;;5129286;27;20159;-84
2022/01/04 05:06:01;;;;;;;1.60;1.10;;;18.60;56.30;;;;;;5113036;27;20175;-84
2022/01/04 05:08:27;;;;;;;2.95;1.15;;;18.60;56.20;;;;;;5147466;27;20170;-84
2022/01/04 05:10:57;;;;;;;2.45;1.10;;;18.70;56.10;;;;;;5147000;27;20166;-84
2022/01/04 05:13:23;;;;;;;2.10;1.10;;;18.60;56.00;;;;;;5130714;27;20151;-84
2022/01/04 05:15:51;;;;;;;3.47;1.10;;;18.60;56.00;;;;;;5130496;27;20159;-84
2022/01/04 05:18:17;;;;;;;5.75;1.48;;;18.70;55.80;;;;;;5146856;27;20208;-84
2022/01/04 05:20:43;;;;;;;2.30;0.95;;;18.70;55.80;;;;;;5130156;27;20582;-84
2022/01/04 05:23:09;;;;;;;1.25;0.85;;;18.70;55.80;;;;;;5146967;27;20159;-84
2022/01/04 05:25:35;;;;;;;2.15;1.00;;;18.70;55.70;;;;;;5146776;27;20159;-84
2022/01/04 05:28:00;;;;;;;2.45;1.00;;;18.70;55.80;;;;;;5128816;27;20174;-84
2022/01/04 05:30:26;;;;;;;3.70;1.15;;;18.70;55.50;;;;;;5146308;27;20167;-84
2022/01/04 05:32:52;;;;;;;1.92;1.00;;;18.70;55.50;;;;;;5147107;27;20250;-84
2022/01/04 05:35:18;;;;;;;1.35;0.90;;;18.70;55.60;;;;;;5146718;27;20157;-84
2022/01/04 05:37:45;;;;;;;3.58;0.80;;;18.80;55.60;;;;;;5147043;27;20217;-84
2022/01/04 05:40:11;;;;;;;2.28;1.10;;;18.70;55.40;;;;;;5147012;27;20236;-84
2022/01/04 05:42:37;;;;;;;1.63;1.13;;;18.80;55.30;;;;;;5129655;27;20164;-84
2022/01/04 05:45:03;;;;;;;1.48;0.93;;;18.80;55.30;;;;;;5112988;27;20251;-84
2022/01/04 05:47:29;;;;;;;2.88;1.17;;;18.80;55.30;;;;;;5129282;27;20571;-84
2022/01/04 05:49:56;;;;;;;3.13;1.10;;;18.80;55.20;;;;;;5146636;27;20242;-84
2022/01/04 05:52:23;;;;;;;2.00;1.15;;;18.80;55.20;;;;;;5145911;27;20532;-84
2022/01/04 05:54:51;;;;;;;1.73;1.13;;;18.80;55.00;;;;;;5146159;27;20211;-84
2022/01/04 05:57:17;;;;;;;1.27;0.90;;;18.90;55.20;;;;;;5146367;27;20212;-84
2022/01/04 05:59:44;;;;;;;1.80;1.20;;;18.90;55.00;;;;;;5129777;27;20219;-84
2022/01/04 06:02:10;;;;;;;2.33;0.90;;;18.80;54.90;;;;;;5146537;27;20255;-84
2022/01/04 06:04:37;;;;;;;1.30;1.17;;;18.90;54.90;;;;;;5146315;27;20156;-84
2022/01/04 06:07:03;;;;;;;1.33;1.10;;;18.80;55.00;;;;;;5128624;28;20589;-84
2022/01/04 06:09:39;;;;;;;2.40;1.10;;;18.80;55.00;;;;;;5121434;28;20179;-84
2022/01/04 06:14:50;;;;;;;0.93;0.75;;;18.90;55.00;;;;;;5109386;28;20148;-85
2022/01/04 06:14:52;;;;;;;0.98;0.88;;;18.90;55.00;;;;;;5111209;28;20167;-85
2022/01/04 06:17:33;;;;;;;2.42;1.00;;;18.80;54.70;;;;;;5108329;28;20587;-85
2022/01/04 06:20:00;;;;;;;1.63;1.10;;;18.80;54.80;;;;;;5126103;28;20168;-85
2022/01/04 06:22:27;;;;;;;1.40;0.98;;;18.90;54.80;;;;;;5125823;28;20156;-85
2022/01/04 06:24:53;;;;;;;2.47;1.35;;;18.90;54.80;;;;;;5109135;28;20156;-85
2022/01/04 06:27:19;;;;;;;1.35;1.00;;;18.90;54.60;;;;;;5126898;28;20180;-85
2022/01/04 06:29:45;;;;;;;1.35;1.10;;;19.00;54.70;;;;;;5145838;27;20156;-85
2022/01/04 06:32:11;;;;;;;1.33;0.85;;;18.90;54.60;;;;;;5111945;28;20173;-85
2022/01/04 06:34:41;;;;;;;3.00;0.82;;;19.00;54.50;;;;;;5091224;28;20225;-84
2022/01/04 06:37:08;;;;;;;3.17;1.05;;;19.00;54.60;;;;;;5075423;28;20192;-84
2022/01/04 06:39:34;;;;;;;1.45;1.05;;;19.00;54.40;;;;;;5111449;27;20179;-84
2022/01/04 06:42:01;;;;;;;1.88;1.02;;;19.00;54.30;;;;;;5116040;27;20151;-84
2022/01/04 06:44:26;;;;;;;1.13;0.98;;;19.00;54.30;;;;;;5096331;28;20175;-84
2022/01/04 06:46:53;;;;;;;1.52;1.10;;;19.00;54.20;;;;;;5095114;28;20235;-84
2022/01/04 06:49:19;;;;;;;2.15;1.10;;;19.00;54.40;;;;;;5106284;27;20206;-85
2022/01/04 06:51:46;;;;;;;2.28;1.00;;;19.00;54.20;;;;;;5132589;27;20163;-84
2022/01/04 06:54:12;;;;;;;1.00;0.90;;;18.90;54.20;;;;;;5132597;27;20187;-84
2022/01/04 06:56:41;;;;;;;2.22;0.88;;;19.00;54.00;;;;;;5142601;27;20219;-83
2022/01/04 06:59:09;;;;;;;1.20;0.90;;;19.00;54.10;;;;;;5095170;28;20231;-83
2022/01/04 07:01:37;;;;;;;1.33;0.90;;;19.00;54.20;;;;;;5112006;28;20152;-83
2022/01/04 07:04:04;;;;;;;1.45;1.00;;;19.00;54.10;;;;;;5095337;28;20180;-83
2022/01/04 07:06:31;;;;;;;1.73;1.10;;;19.00;54.10;;;;;;5111778;28;20182;-83
2022/01/04 07:08:57;;;;;;;1.10;0.77;;;19.10;54.20;;;;;;5095540;28;20168;-84
2022/01/04 07:11:22;;;;;;;1.88;0.90;;;19.00;53.90;;;;;;5094653;28;20168;-83
2022/01/04 07:13:49;;;;;;;2.10;0.98;;;19.10;54.00;;;;;;5111836;28;20178;-83
2022/01/04 07:16:15;;;;;;;1.23;0.82;;;19.00;54.10;;;;;;5095787;28;20269;-83
2022/01/04 07:18:48;;;;;;;1.88;0.70;;;19.10;54.10;;;;;;5112166;28;20246;-83
2022/01/04 07:21:15;;;;;;;1.55;1.00;;;19.00;54.00;;;;;;5096248;28;20198;-83
2022/01/04 07:23:41;;;;;;;1.05;0.85;;;19.10;54.10;;;;;;5111557;28;20156;-84
2022/01/04 07:26:11;;;;;;;1.38;0.90;;;19.00;53.90;;;;;;5112129;28;20171;-83
2022/01/04 07:28:42;;;;;;;1.45;0.90;;;19.10;53.90;;;;;;5112486;28;20167;-83
2022/01/04 07:31:14;;;;;;;2.25;0.88;;;19.10;53.90;;;;;;5130161;28;20156;-83
2022/01/04 07:33:40;;;;;;;1.55;0.85;;;19.00;53.90;;;;;;5094890;28;20164;-83
2022/01/04 07:36:07;;;;;;;0.80;0.68;;;19.00;53.80;;;;;;5110668;28;20210;-83
2022/01/04 07:38:33;;;;;;;1.83;1.00;;;19.10;53.80;;;;;;5109253;28;20163;-83
2022/01/04 07:40:59;;;;;;;1.67;0.82;;;19.10;53.70;;;;;;5094131;28;20164;-83
2022/01/04 07:43:25;;;;;;;1.60;0.98;;;19.10;53.90;;;;;;5092279;28;20170;-83
2022/01/04 07:45:50;;;;;;;1.95;1.00;;;19.10;53.70;;;;;;5129890;28;20157;-83
2022/01/04 07:48:17;;;;;;;2.63;1.00;;;19.10;53.50;;;;;;5109878;28;20186;-83
2022/01/04 07:50:43;;;;;;;2.05;1.10;;;19.10;53.70;;;;;;5106216;28;20208;-83
2022/01/04 07:53:09;;;;;;;2.30;1.00;;;19.10;53.70;;;;;;5106111;28;20235;-83
2022/01/04 07:55:34;;;;;;;1.08;0.80;;;19.10;53.60;;;;;;5110313;28;20208;-82
2022/01/04 07:58:03;;;;;;;1.73;1.00;;;19.10;53.60;;;;;;5108778;28;20223;-83
2022/01/04 08:00:29;;;;;;;1.05;0.70;;;19.20;53.60;;;;;;5123048;27;20160;-85
2022/01/04 08:02:56;;;;;;;1.50;0.90;;;19.10;53.40;;;;;;5096415;28;20220;-84
2022/01/04 08:05:22;;;;;;;0.90;0.77;;;19.10;53.50;;;;;;5127139;28;20164;-84
2022/01/04 08:07:50;;;;;;;0.82;0.70;;;19.10;53.70;;;;;;5117956;27;20696;-84
2022/01/04 08:10:21;;;;;;;1.13;0.98;;;19.10;53.90;;;;;;5115830;27;20147;-84
2022/01/04 08:12:48;;;;;;;2.42;0.90;;;19.10;54.10;;;;;;5129800;27;20548;-85
2022/01/04 08:15:13;;;;;;;1.70;1.05;;;19.20;54.30;;;;;;5112717;27;20254;-84
2022/01/04 08:17:43;;;;;;;1.60;1.02;;;19.20;54.00;;;;;;5130931;27;20525;-84
2022/01/04 08:20:11;;;;;;;1.35;0.85;;;19.20;54.20;;;;;;5099834;27;20171;-82
2022/01/04 08:22:37;;;;;;;4.25;1.00;;;19.20;54.30;;;;;;5117495;28;20627;-84
2022/01/04 08:25:05;;;;;;;1.77;0.82;;;19.20;54.20;;;;;;5107858;28;20266;-85
2022/01/04 08:27:32;;;;;;;0.90;0.90;;;19.20;54.00;;;;;;5091445;28;20250;-83
2022/01/04 08:29:58;;;;;;;0.73;0.73;;;19.20;53.70;;;;;;5092771;28;20176;-84
2022/01/04 08:32:23;;;;;;;1.30;0.80;;;19.20;53.60;;;;;;5093265;28;20152;-85
2022/01/04 08:34:50;;;;;;;3.90;1.00;;;19.30;53.60;;;;;;5074363;28;20171;-83
2022/01/04 08:37:16;;;;;;;2.10;0.95;;;19.20;53.50;;;;;;5092319;28;20183;-85
2022/01/04 08:39:42;;;;;;;0.98;0.88;;;19.20;53.50;;;;;;5077759;28;20646;-84
2022/01/04 08:42:09;;;;;;;1.20;0.88;;;19.20;53.60;;;;;;5095875;28;20243;-85
2022/01/04 08:44:39;;;;;;;2.72;0.98;;;19.20;53.90;;;;;;5108738;28;20647;-86
2022/01/04 08:47:06;;;;;;;1.50;1.00;;;19.20;53.70;;;;;;5092291;28;20198;-85
2022/01/04 08:49:34;;;;;;;1.40;0.80;;;19.30;53.70;;;;;;5092877;28;20163;-85
2022/01/04 08:52:04;;;;;;;2.28;0.80;;;19.20;53.60;;;;;;5074681;28;20215;-85
2022/01/04 08:54:35;;;;;;;0.60;0.60;;;19.20;53.60;;;;;;5090829;28;20165;-82
2022/01/04 08:57:01;;;;;;;2.70;0.80;;;19.20;53.30;;;;;;5104092;28;20294;-84
2022/01/04 08:59:27;;;;;;;1.85;0.90;;;19.20;53.10;;;;;;5103795;28;20165;-85
2022/01/04 09:01:54;;;;;;;1.95;1.05;;;19.30;53.20;;;;;;5105907;28;20160;-84
2022/01/04 09:04:21;;;;;;;1.67;0.93;;;19.20;53.20;;;;;;5087428;28;20156;-84
2022/01/04 09:06:48;;;;;;;4.55;1.08;;;19.30;53.20;;;;;;5088292;28;20278;-83
2022/01/04 09:09:16;;;;;;;3.05;1.00;;;19.30;53.30;;;;;;5089108;28;20163;-84
2022/01/04 09:11:42;;;;;;;2.42;1.10;;;19.30;53.50;;;;;;5089266;28;20244;-85
2022/01/04 09:19:27;;;;;;;3.60;1.00;;;19.40;53.80;;;;;;5090243;28;20145;-85
2022/01/04 09:21:54;;;;;;;3.85;0.82;;;19.30;53.90;;;;;;5089206;28;20164;-84
2022/01/04 09:24:20;;;;;;;2.28;0.90;;;19.40;53.80;;;;;;5105118;28;20161;-85
2022/01/04 09:26:47;;;;;;;4.63;0.98;;;19.40;53.80;;;;;;5104574;28;20175;-84
2022/01/04 09:29:19;;;;;;;5.10;1.05;;;19.40;54.00;;;;;;5102846;28;20673;-87
2022/01/04 09:31:47;;;;;;;7.82;1.08;;;19.40;54.20;;;;;;5071322;28;20181;-84
2022/01/04 09:34:13;;;;;;;4.88;1.10;;;19.40;54.20;;;;;;5027305;28;20163;-83
2022/01/04 09:36:40;;;;;;;1.92;0.80;;;19.50;54.20;;;;;;5045573;28;20316;-85
2022/01/04 09:39:15;;;;;;;4.78;1.00;;;19.40;54.30;;;;;;5061177;28;20162;-84
2022/01/04 09:41:51;;;;;;;5.43;0.90;;;19.50;54.10;;;;;;5046044;28;20210;-83
2022/01/04 09:44:22;;;;;;;5.18;1.13;;;19.50;53.80;;;;;;5029341;28;20187;-86
2022/01/04 09:46:49;;;;;;;3.58;1.10;;;19.40;54.00;;;;;;5029817;28;20166;-83
2022/01/04 09:49:19;;;;;;;7.85;1.30;;;19.50;54.10;;;;;;5045866;28;20206;-85
2022/01/04 09:51:51;;;;;;;5.82;1.27;;;19.50;54.00;;;;;;5064515;28;20162;-85
2022/01/04 09:54:31;;;;;;;7.72;1.17;;;19.50;53.80;;;;;;5047286;28;20198;-85
2022/01/04 09:56:57;;;;;;;4.40;1.00;;;19.50;53.60;;;;;;5048884;28;20310;-84
2022/01/04 09:59:24;;;;;;;4.07;0.98;;;19.50;53.50;;;;;;5100556;28;20184;-85
2022/01/04 10:01:54;;;;;;;7.05;1.30;;;19.50;53.50;;;;;;5085663;28;20152;-84
2022/01/04 10:04:24;;;;;;;4.07;1.10;;;19.50;53.50;;;;;;5042001;28;20170;-85
2022/01/04 10:07:01;;;;;;;5.40;1.10;;;19.50;53.40;;;;;;5026321;28;20229;-85
2022/01/04 10:09:44;;;;;;;9.60;1.00;;;19.50;53.60;;;;;;5023616;28;20198;-86
2022/01/04 10:12:10;;;;;;;7.82;1.33;;;19.50;53.50;;;;;;5025637;28;20189;-84
2022/01/04 10:14:40;;;;;;;10.20;1.60;;;19.50;53.30;;;;;;5009618;28;20186;-84
2022/01/04 10:17:14;;;;;;;8.77;1.45;;;19.50;53.30;;;;;;5007939;28;20286;-85
2022/01/04 10:19:48;;;;;;;10.73;1.60;;;19.50;53.70;;;;;;5023882;28;20205;-84
2022/01/04 10:22:34;;;;;;;10.13;1.30;;;19.50;53.70;;;;;;5005265;28;20166;-84
2022/01/04 10:25:11;;;;;;;10.07;1.38;;;19.50;53.70;;;;;;5020054;28;20236;-85
2022/01/04 10:27:41;;;;;;;8.77;1.50;;;19.50;53.70;;;;;;5029277;28;20655;-84
2022/01/04 10:30:25;;;;;;;10.02;1.38;;;19.50;53.90;;;;;;5044287;28;20181;-85
2022/01/04 10:33:08;;;;;;;10.48;1.13;;;19.50;53.80;;;;;;5058222;28;20166;-85
2022/01/04 10:35:44;;;;;;;8.25;1.30;;;19.50;53.90;;;;;;5096353;28;20179;-85
2022/01/04 10:38:17;;;;;;;12.65;1.60;;;19.50;54.00;;;;;;5108533;28;20235;-85
2022/01/04 10:40:45;;;;;;;7.13;1.65;;;19.50;54.00;;;;;;5125052;28;20266;-85
2022/01/04 10:43:16;;;;;;;7.35;1.38;;;19.50;54.00;;;;;;5109334;28;20164;-85
2022/01/04 10:45:47;;;;;;;8.65;1.45;;;19.50;53.70;;;;;;5111194;28;20148;-82
2022/01/04 10:48:20;;;;;;;10.38;1.48;;;19.50;53.30;;;;;;5126216;28;20154;-84
2022/01/04 10:50:51;;;;;;;7.47;1.40;;;19.50;53.90;;;;;;5143628;28;20159;-85
2022/01/04 10:53:31;;;;;;;12.07;1.38;;;19.50;54.30;;;;;;5126669;28;20167;-83
2022/01/04 10:56:00;;;;;;;13.43;1.75;;;19.50;54.30;;;;;;5108143;28;20230;-84
2022/01/04 10:58:30;;;;;;;13.52;1.77;;;19.50;54.60;;;;;;5124376;28;20246;-84
2022/01/04 11:01:02;;;;;;;11.80;1.98;;;19.50;54.40;;;;;;5122730;28;20191;-84
2022/01/04 11:03:38;;;;;;;17.20;2.10;;;19.50;54.10;;;;;;5122786;28;20655;-85
2022/01/04 11:06:06;;;;;;;10.95;1.75;;;19.50;54.30;;;;;;5083432;28;20180;-83
2022/01/04 11:08:35;;;;;;;16.92;1.90;;;19.50;54.20;;;;;;5100657;28;20288;-84
2022/01/04 11:11:01;;;;;;;16.05;1.75;;;19.50;54.20;;;;;;5083990;28;20229;-84
2022/01/04 11:13:28;;;;;;;7.20;1.13;;;19.50;54.10;;;;;;5098713;28;20280;-84
2022/01/04 11:15:53;;;;;;;13.95;1.92;;;19.60;53.40;;;;;;5096310;28;20564;-84
2022/01/04 11:18:19;;;;;;;13.57;1.58;;;19.50;54.50;;;;;;5099181;28;20215;-83
2022/01/04 11:20:45;;;;;;;13.25;1.65;;;19.60;54.30;;;;;;5099179;28;20156;-83
2022/01/04 11:23:13;;;;;;;7.95;1.35;;;19.50;54.10;;;;;;5100030;28;20239;-83
2022/01/04 11:25:43;;;;;;;12.90;2.25;;;19.60;54.00;;;;;;5102751;28;20148;-83
2022/01/04 11:28:13;;;;;;;9.10;1.30;;;19.50;54.10;;;;;;5089506;28;20160;-83
2022/01/04 11:31:12;;;;;;;12.00;1.42;;;19.60;54.30;;;;;;5110122;28;20223;-81
2022/01/04 11:34:02;;;;;;;7.57;1.45;;;19.50;54.40;;;;;;5114338;28;20164;-83
2022/01/04 11:36:30;;;;;;;10.95;1.67;;;19.50;52.90;;;;;;5110622;28;20631;-83
2022/01/04 11:38:56;;;;;;;14.77;1.73;;;19.50;53.10;;;;;;5108561;28;20153;-83
2022/01/04 11:41:42;;;;;;;25.27;2.50;;;19.50;53.30;;;;;;5107989;28;20152;-84
2022/01/04 11:44:18;;;;;;;24.70;2.78;;;19.50;53.50;;;;;;5109998;28;20191;-81
2022/01/04 11:46:44;;;;;;;13.00;2.55;;;19.50;53.90;;;;;;5107231;28;20163;-83
2022/01/04 11:49:12;;;;;;;25.20;2.90;;;19.60;54.10;;;;;;5108844;28;20168;-82
2022/01/04 11:51:45;;;;;;;25.98;2.88;;;19.50;53.80;;;;;;5126146;28;20251;-83
2022/01/04 11:54:19;;;;;;;18.88;2.47;;;19.50;53.50;;;;;;5105428;28;20253;-83
2022/01/04 11:57:01;;;;;;;20.15;2.85;;;19.50;54.00;;;;;;5080423;28;20315;-84
2022/01/04 11:59:45;;;;;;;14.18;2.40;;;19.60;53.80;;;;;;5100085;28;20167;-84
2022/01/04 12:02:27;;;;;;;20.58;2.60;;;19.50;53.50;;;;;;5084870;28;20156;-82
2022/01/04 12:04:56;;;;;;;21.33;2.33;;;19.50;54.00;;;;;;5104415;28;20530;-83
2022/01/04 12:07:49;;;;;;;16.15;2.55;;;19.50;53.90;;;;;;5102080;28;20184;-83
2022/01/04 12:10:37;;;;;;;13.68;2.20;;;19.50;54.30;;;;;;5105517;28;20195;-82
2022/01/04 12:13:20;;;;;;;20.73;2.47;;;19.60;54.70;;;;;;5106182;28;20187;-83
2022/01/04 12:15:50;;;;;;;22.90;2.63;;;19.60;54.70;;;;;;5117934;28;20164;-84
2022/01/04 12:18:56;;;;;;;41.35;3.63;;;19.60;54.80;;;;;;5099773;28;20164;-84
2022/01/04 12:21:22;;;;;;;26.50;3.13;;;19.60;55.00;;;;;;5094539;28;20167;-84
2022/01/04 12:23:48;;;;;;;31.58;3.03;;;19.60;54.00;;;;;;5133367;27;20265;-84
2022/01/04 12:26:32;;;;;;;26.25;3.72;;;19.50;54.30;;;;;;5116852;28;20160;-84
2022/01/04 12:29:18;;;;;;;28.35;3.55;;;19.60;54.30;;;;;;5116493;28;20148;-84
2022/01/04 12:31:48;;;;;;;29.83;3.20;;;19.60;54.10;;;;;;5101442;28;20167;-83
2022/01/04 12:34:33;;;;;;;27.92;2.83;;;19.50;53.90;;;;;;5099947;28;20153;-84
2022/01/04 12:37:00;;;;;;;30.60;3.10;;;19.60;54.10;;;;;;5083112;28;20187;-85
2022/01/04 12:39:33;;;;;;;23.02;2.92;;;19.60;53.50;;;;;;5137976;27;20251;-82
2022/01/04 12:41:59;;;;;;;23.00;2.75;;;19.60;54.20;;;;;;5119236;28;20191;-83
2022/01/04 12:44:26;;;;;;;23.02;3.25;;;19.50;54.10;;;;;;5136724;27;20164;-85
2022/01/04 12:46:52;;;;;;;34.00;3.33;;;19.60;54.10;;;;;;5117877;28;20164;-84
2022/01/04 12:49:20;;;;;;;34.97;3.35;;;19.50;54.20;;;;;;5134496;27;20250;-84
2022/01/04 12:51:53;;;;;;;17.27;2.58;;;19.60;54.10;;;;;;5116743;28;20171;-83
2022/01/04 12:54:34;;;;;;;22.77;2.30;;;19.60;54.20;;;;;;5116384;28;20160;-83
2022/01/04 12:57:03;;;;;;;13.27;2.15;;;19.60;53.90;;;;;;5117777;28;20270;-83
2022/01/04 12:59:33;;;;;;;17.13;2.20;;;19.60;53.90;;;;;;5089441;28;20233;-81
2022/01/04 13:02:01;;;;;;;22.08;3.13;;;19.60;53.90;;;;;;5102000;28;20225;-83